Time;durP1;ratioP1;P1;durP2;ratioP2;P2;SDS_P1;SDS_P2;PMS_P1;PMS_P2;Temp;Humidity;BMP_temperature;BMP_pressure;BME280_temperature;BME280_humidity;BME280_pressure;Samples;Min_cycle;Max_cycle;Signal;HPM_P1;HPM_P2
2023/12/28 00:00:39;;;;;;;4.18;2.83;;;;;;;;;;5090898;28;20044;-68
2023/12/28 00:03:07;;;;;;;5.07;3.20;;;;;;;;;;5085827;28;20048;-68
2023/12/28 00:05:33;;;;;;;4.47;2.80;;;;;;;;;;5078253;28;20044;-68
2023/12/28 00:08:00;;;;;;;5.45;3.00;;;;;;;;;;5089068;28;20055;-68
2023/12/28 00:10:26;;;;;;;5.85;3.28;;;;;;;;;;5079544;28;20047;-68
2023/12/28 00:12:54;;;;;;;3.67;2.92;;;;;;;;;;5081487;28;20045;-68
2023/12/28 00:15:20;;;;;;;5.10;3.30;;;;;;;;;;5081726;28;20044;-68
2023/12/28 00:17:47;;;;;;;4.20;2.83;;;;;;;;;;5083248;28;20078;-68
2023/12/28 00:20:14;;;;;;;6.13;3.17;;;;;;;;;;5084218;28;20050;-68
2023/12/28 00:22:41;;;;;;;4.22;2.95;;;;;;;;;;5081797;28;20400;-68
2023/12/28 00:25:08;;;;;;;3.58;2.38;;;;;;;;;;5088273;28;20058;-68
2023/12/28 00:27:37;;;;;;;4.95;2.78;;;;;;;;;;5078412;28;20405;-68
2023/12/28 00:30:04;;;;;;;5.22;3.00;;;;;;;;;;5089326;28;20076;-68
2023/12/28 00:32:31;;;;;;;4.30;2.85;;;;;;;;;;5082504;28;20435;-68
2023/12/28 00:34:57;;;;;;;4.07;2.83;;;;;;;;;;5087288;28;20044;-68
2023/12/28 00:37:25;;;;;;;3.78;2.92;;;;;;;;;;5085320;28;20051;-68
2023/12/28 00:39:51;;;;;;;4.95;2.90;;;;;;;;;;5085489;28;20050;-68
2023/12/28 00:42:18;;;;;;;4.40;2.90;;;;;;;;;;5087427;28;20048;-68
2023/12/28 00:44:45;;;;;;;5.30;2.78;;;;;;;;;;5081953;28;20048;-68
2023/12/28 00:47:11;;;;;;;3.38;2.60;;;;;;;;;;5085930;28;20051;-68
2023/12/28 00:49:38;;;;;;;5.70;2.80;;;;;;;;;;5082626;28;20050;-68
2023/12/28 00:52:05;;;;;;;4.50;2.70;;;;;;;;;;5090619;28;20553;-68
2023/12/28 00:54:32;;;;;;;4.35;2.67;;;;;;;;;;5085040;28;20493;-68
2023/12/28 00:56:59;;;;;;;3.55;2.70;;;;;;;;;;5086531;28;20044;-68
2023/12/28 00:59:25;;;;;;;4.00;2.60;;;;;;;;;;5083179;28;20055;-68
2023/12/28 01:01:52;;;;;;;4.63;2.28;;;;;;;;;;5085497;28;20507;-68
2023/12/28 01:04:18;;;;;;;5.40;2.45;;;;;;;;;;5085127;28;20127;-67
2023/12/28 01:06:44;;;;;;;3.33;2.40;;;;;;;;;;5085430;28;20053;-67
2023/12/28 01:09:11;;;;;;;5.20;2.75;;;;;;;;;;5081483;28;20446;-68
2023/12/28 01:11:38;;;;;;;2.60;2.15;;;;;;;;;;5082880;28;20060;-68
2023/12/28 01:14:05;;;;;;;3.03;2.20;;;;;;;;;;5084567;28;20044;-68
2023/12/28 01:16:32;;;;;;;5.35;2.70;;;;;;;;;;5080670;28;20407;-68
2023/12/28 01:18:58;;;;;;;3.42;2.45;;;;;;;;;;5089170;28;20066;-68
2023/12/28 01:21:25;;;;;;;4.68;2.70;;;;;;;;;;5085693;28;20050;-68
2023/12/28 01:23:51;;;;;;;3.53;2.60;;;;;;;;;;5084651;28;20052;-68
2023/12/28 01:26:18;;;;;;;2.90;2.50;;;;;;;;;;5085510;28;20040;-68
2023/12/28 01:28:46;;;;;;;6.85;2.40;;;;;;;;;;5080731;28;20136;-68
2023/12/28 01:31:12;;;;;;;3.75;2.47;;;;;;;;;;5081645;28;20414;-68
2023/12/28 01:33:38;;;;;;;3.85;2.45;;;;;;;;;;5072134;28;20055;-68
2023/12/28 01:36:14;;;;;;;4.20;2.60;;;;;;;;;;5084504;28;20051;-68
2023/12/28 01:38:41;;;;;;;4.95;2.50;;;;;;;;;;5082811;28;20048;-68
2023/12/28 01:41:07;;;;;;;3.45;2.38;;;;;;;;;;5082419;28;20057;-68
2023/12/28 01:43:33;;;;;;;3.83;2.70;;;;;;;;;;5084753;28;20131;-68
2023/12/28 01:46:02;;;;;;;4.55;2.42;;;;;;;;;;5076453;28;20048;-68
2023/12/28 01:48:28;;;;;;;4.68;2.67;;;;;;;;;;5086019;28;20434;-68
2023/12/28 01:50:55;;;;;;;3.58;2.63;;;;;;;;;;5084814;28;20054;-68
2023/12/28 01:53:21;;;;;;;3.47;2.70;;;;;;;;;;5079132;28;20048;-68
2023/12/28 01:55:48;;;;;;;3.97;2.70;;;;;;;;;;5080618;28;20054;-68
2023/12/28 01:58:14;;;;;;;3.78;2.67;;;;;;;;;;5081307;28;20492;-68
2023/12/28 02:00:42;;;;;;;3.35;2.45;;;;;;;;;;5086180;28;20047;-68
2023/12/28 02:03:10;;;;;;;3.88;2.75;;;;;;;;;;5085634;28;20414;-68
2023/12/28 02:05:37;;;;;;;3.20;2.50;;;;;;;;;;5092750;28;20067;-68
2023/12/28 02:08:04;;;;;;;5.15;2.70;;;;;;;;;;5091528;28;20609;-68
2023/12/28 02:10:31;;;;;;;3.15;2.17;;;;;;;;;;5087976;28;20127;-68
2023/12/28 02:12:57;;;;;;;4.88;2.60;;;;;;;;;;5084927;28;20074;-68
2023/12/28 02:15:24;;;;;;;3.22;2.33;;;;;;;;;;5079792;28;20480;-68
2023/12/28 02:17:55;;;;;;;4.15;2.72;;;;;;;;;;5089494;28;20122;-68
2023/12/28 02:20:24;;;;;;;4.53;3.10;;;;;;;;;;5088537;28;20072;-68
2023/12/28 02:22:50;;;;;;;3.10;2.58;;;;;;;;;;5080034;28;20051;-68
2023/12/28 02:25:18;;;;;;;3.53;2.55;;;;;;;;;;5087749;28;20484;-68
2023/12/28 02:27:46;;;;;;;7.07;2.90;;;;;;;;;;5092509;28;20040;-68
2023/12/28 02:30:13;;;;;;;3.45;2.65;;;;;;;;;;5085056;28;20055;-67
2023/12/28 02:32:50;;;;;;;4.43;2.50;;;;;;;;;;5091334;28;20044;-68
2023/12/28 02:35:18;;;;;;;3.92;2.85;;;;;;;;;;5084691;28;20051;-67
2023/12/28 02:37:46;;;;;;;4.20;2.30;;;;;;;;;;5085305;28;20044;-68
2023/12/28 02:40:14;;;;;;;4.35;2.33;;;;;;;;;;5089161;28;20097;-68
2023/12/28 02:42:42;;;;;;;5.55;2.60;;;;;;;;;;5084340;28;20062;-68
2023/12/28 02:45:10;;;;;;;4.80;2.50;;;;;;;;;;5086167;28;20135;-68
2023/12/28 02:47:36;;;;;;;2.58;2.17;;;;;;;;;;5083746;28;20048;-68
2023/12/28 02:50:02;;;;;;;5.25;2.83;;;;;;;;;;5092152;28;20470;-68
2023/12/28 02:52:29;;;;;;;3.80;2.20;;;;;;;;;;5085358;28;20048;-68
2023/12/28 02:54:55;;;;;;;3.08;2.03;;;;;;;;;;5089475;28;20054;-68
2023/12/28 02:57:21;;;;;;;2.97;2.15;;;;;;;;;;5084485;28;20131;-69
2023/12/28 02:59:49;;;;;;;3.03;2.13;;;;;;;;;;5092017;28;20050;-68
2023/12/28 03:02:16;;;;;;;3.20;2.17;;;;;;;;;;5080504;28;20051;-68
2023/12/28 03:04:42;;;;;;;2.85;2.30;;;;;;;;;;5087644;28;20044;-68
2023/12/28 03:07:08;;;;;;;3.63;2.28;;;;;;;;;;5084179;28;20513;-68
2023/12/28 03:09:38;;;;;;;2.35;2.10;;;;;;;;;;5091537;28;20414;-68
2023/12/28 03:12:04;;;;;;;3.90;2.22;;;;;;;;;;5083382;28;20071;-68
2023/12/28 03:14:31;;;;;;;4.03;2.03;;;;;;;;;;5088986;28;20054;-68
2023/12/28 03:16:58;;;;;;;2.80;1.98;;;;;;;;;;5088034;28;20050;-68
2023/12/28 03:19:25;;;;;;;4.35;2.10;;;;;;;;;;5087164;28;20547;-69
2023/12/28 03:21:51;;;;;;;3.33;2.38;;;;;;;;;;5090609;28;20109;-69
2023/12/28 03:24:17;;;;;;;3.13;2.50;;;;;;;;;;5090534;28;20044;-68
2023/12/28 03:26:44;;;;;;;3.20;2.15;;;;;;;;;;5092246;28;20040;-69
2023/12/28 03:29:10;;;;;;;4.43;2.53;;;;;;;;;;5091383;28;20137;-68
2023/12/28 03:31:39;;;;;;;3.13;2.33;;;;;;;;;;5087166;28;20131;-68
2023/12/28 03:34:07;;;;;;;2.75;2.15;;;;;;;;;;5088700;28;20056;-68
2023/12/28 03:36:33;;;;;;;4.80;2.20;;;;;;;;;;5084289;28;20446;-68
2023/12/28 03:39:00;;;;;;;3.53;2.13;;;;;;;;;;5086340;28;20044;-68
2023/12/28 03:41:26;;;;;;;3.25;1.95;;;;;;;;;;5085922;28;20046;-68
2023/12/28 03:43:52;;;;;;;3.10;2.10;;;;;;;;;;5084570;28;20052;-68
2023/12/28 03:46:19;;;;;;;3.63;2.50;;;;;;;;;;5090921;28;20052;-69
2023/12/28 03:48:45;;;;;;;3.28;2.10;;;;;;;;;;5090199;28;20051;-68
2023/12/28 03:51:16;;;;;;;3.60;2.00;;;;;;;;;;5087884;28;20040;-68
2023/12/28 03:53:42;;;;;;;6.25;2.50;;;;;;;;;;5086637;28;20123;-68
2023/12/28 03:56:08;;;;;;;3.78;2.03;;;;;;;;;;5091662;28;20499;-68
2023/12/28 03:58:35;;;;;;;4.00;2.30;;;;;;;;;;5091051;28;20131;-68
2023/12/28 04:01:01;;;;;;;2.85;2.22;;;;;;;;;;5089997;28;20039;-68
2023/12/28 04:03:28;;;;;;;4.60;2.20;;;;;;;;;;5082340;28;20551;-68
2023/12/28 04:05:54;;;;;;;2.63;2.05;;;;;;;;;;5085009;28;20044;-68
2023/12/28 04:08:22;;;;;;;2.90;2.08;;;;;;;;;;5090885;28;20048;-69
2023/12/28 04:10:48;;;;;;;3.95;2.40;;;;;;;;;;5079483;28;20506;-68
2023/12/28 04:13:15;;;;;;;3.13;1.90;;;;;;;;;;5090216;28;20055;-69
2023/12/28 04:15:42;;;;;;;4.30;2.22;;;;;;;;;;5090098;28;20043;-68
2023/12/28 04:18:09;;;;;;;3.00;2.03;;;;;;;;;;5090890;28;20097;-68
2023/12/28 04:20:35;;;;;;;4.05;2.42;;;;;;;;;;5086026;28;20044;-68
2023/12/28 04:23:01;;;;;;;4.25;2.35;;;;;;;;;;5081670;28;20051;-69
2023/12/28 04:25:29;;;;;;;4.63;2.10;;;;;;;;;;5087586;28;20396;-68
2023/12/28 04:27:56;;;;;;;4.43;2.17;;;;;;;;;;5087359;28;20076;-68
2023/12/28 04:30:22;;;;;;;4.95;2.50;;;;;;;;;;5079696;28;20070;-69
2023/12/28 04:32:48;;;;;;;3.38;2.15;;;;;;;;;;5079201;28;20054;-68
2023/12/28 04:35:15;;;;;;;3.38;2.22;;;;;;;;;;5090627;28;20411;-69
2023/12/28 04:37:41;;;;;;;5.43;2.17;;;;;;;;;;5082974;28;20048;-68
2023/12/28 04:40:08;;;;;;;3.83;2.42;;;;;;;;;;5089440;28;20408;-68
2023/12/28 04:42:36;;;;;;;3.97;2.22;;;;;;;;;;5086111;28;20135;-68
2023/12/28 04:45:02;;;;;;;4.18;1.98;;;;;;;;;;5085933;28;20485;-68
2023/12/28 04:47:29;;;;;;;4.70;2.30;;;;;;;;;;5088658;28;20071;-69
2023/12/28 04:49:55;;;;;;;5.97;2.20;;;;;;;;;;5080240;28;20051;-68
2023/12/28 04:52:22;;;;;;;4.10;2.40;;;;;;;;;;5090239;28;20423;-68
2023/12/28 04:54:48;;;;;;;3.42;2.00;;;;;;;;;;5084337;28;20504;-68
2023/12/28 04:57:14;;;;;;;4.43;2.38;;;;;;;;;;5086300;28;20066;-68
2023/12/28 04:59:42;;;;;;;6.20;3.20;;;;;;;;;;5082246;28;20044;-68
2023/12/28 05:02:09;;;;;;;8.95;5.25;;;;;;;;;;5086902;28;20047;-69
2023/12/28 05:04:38;;;;;;;12.82;7.13;;;;;;;;;;5081320;28;20072;-68
2023/12/28 05:07:04;;;;;;;14.73;6.50;;;;;;;;;;5085877;28;20400;-68
2023/12/28 05:09:31;;;;;;;4.43;2.35;;;;;;;;;;5084289;28;20040;-68
2023/12/28 05:11:57;;;;;;;3.90;2.10;;;;;;;;;;5085111;28;20044;-68
2023/12/28 05:14:24;;;;;;;2.70;1.88;;;;;;;;;;5084891;28;20518;-68
2023/12/28 05:16:51;;;;;;;3.60;2.30;;;;;;;;;;5085887;28;20040;-68
2023/12/28 05:19:18;;;;;;;5.13;2.08;;;;;;;;;;5089233;28;20048;-70
2023/12/28 05:21:44;;;;;;;3.75;2.00;;;;;;;;;;5087056;28;20040;-68
2023/12/28 05:24:11;;;;;;;3.10;1.90;;;;;;;;;;5084864;28;20135;-68
2023/12/28 05:26:37;;;;;;;2.78;2.15;;;;;;;;;;5089496;28;20458;-68
2023/12/28 05:29:03;;;;;;;5.68;2.17;;;;;;;;;;5089401;28;20052;-68
2023/12/28 05:31:30;;;;;;;2.97;2.10;;;;;;;;;;5086689;28;20051;-68
2023/12/28 05:33:58;;;;;;;2.22;1.80;;;;;;;;;;5084442;28;20054;-68
2023/12/28 05:36:24;;;;;;;3.47;1.90;;;;;;;;;;5090300;28;20415;-68
2023/12/28 05:38:51;;;;;;;2.63;1.73;;;;;;;;;;5088041;28;20041;-68
2023/12/28 05:41:17;;;;;;;6.55;2.25;;;;;;;;;;5088500;28;20468;-68
2023/12/28 05:43:43;;;;;;;3.80;1.63;;;;;;;;;;5081339;28;20044;-68
2023/12/28 05:46:10;;;;;;;2.10;1.75;;;;;;;;;;5093556;28;20051;-68
2023/12/28 05:48:36;;;;;;;2.92;2.20;;;;;;;;;;5090904;28;20156;-68
2023/12/28 05:51:04;;;;;;;4.65;2.55;;;;;;;;;;5093028;28;20067;-68
2023/12/28 05:53:31;;;;;;;2.45;1.63;;;;;;;;;;5089210;28;20048;-68
2023/12/28 05:55:59;;;;;;;2.90;2.00;;;;;;;;;;5093005;28;20044;-68
2023/12/28 05:58:26;;;;;;;2.63;1.77;;;;;;;;;;5084482;28;20052;-68
2023/12/28 06:00:54;;;;;;;2.13;1.80;;;;;;;;;;5083611;28;20123;-68
2023/12/28 06:03:20;;;;;;;2.22;1.88;;;;;;;;;;5084914;28;20488;-69
2023/12/28 06:05:47;;;;;;;2.92;1.88;;;;;;;;;;5084335;28;20072;-68
2023/12/28 06:08:15;;;;;;;2.30;1.67;;;;;;;;;;5089460;28;20051;-68
2023/12/28 06:10:44;;;;;;;3.50;2.00;;;;;;;;;;5078514;28;20058;-69
2023/12/28 06:13:10;;;;;;;3.10;1.70;;;;;;;;;;5083464;28;20427;-67
2023/12/28 06:15:36;;;;;;;3.63;1.90;;;;;;;;;;5088732;28;20049;-68
2023/12/28 06:18:04;;;;;;;3.85;2.05;;;;;;;;;;5090527;28;20051;-68
2023/12/28 06:20:30;;;;;;;2.67;1.90;;;;;;;;;;5093455;28;20388;-68
2023/12/28 06:22:57;;;;;;;2.30;1.75;;;;;;;;;;5085922;28;20054;-68
2023/12/28 06:25:24;;;;;;;3.53;1.90;;;;;;;;;;5090201;28;20047;-68
2023/12/28 06:27:51;;;;;;;2.63;1.75;;;;;;;;;;5091772;28;20044;-68
2023/12/28 06:30:17;;;;;;;2.70;1.80;;;;;;;;;;5093190;28;20048;-68
2023/12/28 06:32:43;;;;;;;4.38;2.20;;;;;;;;;;5088093;28;20048;-68
2023/12/28 06:35:10;;;;;;;3.95;1.65;;;;;;;;;;5084941;28;20415;-68
2023/12/28 06:37:36;;;;;;;3.13;1.85;;;;;;;;;;5084442;28;20047;-68
2023/12/28 06:40:03;;;;;;;5.28;2.55;;;;;;;;;;5086809;28;20046;-68
2023/12/28 06:42:31;;;;;;;3.58;2.10;;;;;;;;;;5092407;28;20423;-68
2023/12/28 06:44:57;;;;;;;3.13;1.88;;;;;;;;;;5091298;28;20054;-68
2023/12/28 06:47:23;;;;;;;2.72;1.98;;;;;;;;;;5092724;28;20040;-68
2023/12/28 06:49:49;;;;;;;4.22;2.05;;;;;;;;;;5087329;28;20044;-68
2023/12/28 06:52:16;;;;;;;2.92;2.03;;;;;;;;;;5088241;28;20046;-68
2023/12/28 06:54:42;;;;;;;4.47;1.88;;;;;;;;;;5087522;28;20055;-68
2023/12/28 06:57:09;;;;;;;3.90;2.10;;;;;;;;;;5092427;28;20048;-68
2023/12/28 06:59:36;;;;;;;3.40;2.28;;;;;;;;;;5088325;28;20044;-68
2023/12/28 07:02:03;;;;;;;2.13;1.80;;;;;;;;;;5084733;28;20127;-68
2023/12/28 07:04:29;;;;;;;3.92;2.10;;;;;;;;;;5088473;28;20048;-68
2023/12/28 07:06:56;;;;;;;3.88;1.90;;;;;;;;;;5086575;28;20483;-68
2023/12/28 07:09:22;;;;;;;3.00;1.80;;;;;;;;;;5091415;28;20547;-68
2023/12/28 07:11:48;;;;;;;4.28;1.63;;;;;;;;;;5091750;28;20070;-68
2023/12/28 07:14:15;;;;;;;2.15;1.67;;;;;;;;;;5082734;28;20094;-68
2023/12/28 07:16:43;;;;;;;3.45;1.77;;;;;;;;;;5087878;28;20422;-68
2023/12/28 07:19:09;;;;;;;2.13;1.52;;;;;;;;;;5086650;28;20507;-68
2023/12/28 07:21:35;;;;;;;4.75;2.13;;;;;;;;;;5084002;28;20044;-68
2023/12/28 07:24:02;;;;;;;3.08;1.67;;;;;;;;;;5087279;28;20047;-68
2023/12/28 07:26:28;;;;;;;5.57;1.90;;;;;;;;;;5091945;28;20040;-68
2023/12/28 07:28:54;;;;;;;4.93;1.58;;;;;;;;;;5091729;28;20046;-68
2023/12/28 07:31:24;;;;;;;4.72;2.00;;;;;;;;;;5087830;28;20044;-68
2023/12/28 07:33:52;;;;;;;4.85;2.10;;;;;;;;;;5087008;28;20044;-68
2023/12/28 07:36:18;;;;;;;4.88;2.20;;;;;;;;;;5091079;28;20055;-68
2023/12/28 07:38:45;;;;;;;1.77;1.60;;;;;;;;;;5087398;28;20055;-68
2023/12/28 07:41:11;;;;;;;3.38;1.50;;;;;;;;;;5090863;28;20412;-68
2023/12/28 07:43:37;;;;;;;1.88;1.30;;;;;;;;;;5086807;28;20048;-68
2023/12/28 07:46:04;;;;;;;3.13;1.40;;;;;;;;;;5091201;28;20100;-68
2023/12/28 07:48:30;;;;;;;3.00;1.52;;;;;;;;;;5088801;28;20052;-68
2023/12/28 07:50:58;;;;;;;3.85;1.60;;;;;;;;;;5088628;28;20048;-68
2023/12/28 07:53:25;;;;;;;2.38;1.50;;;;;;;;;;5085176;28;20048;-68
2023/12/28 07:55:51;;;;;;;4.63;1.50;;;;;;;;;;5083832;28;20131;-68
2023/12/28 07:58:23;;;;;;;2.80;1.45;;;;;;;;;;5083300;28;20522;-68
2023/12/28 08:00:50;;;;;;;2.40;1.88;;;;;;;;;;5077490;28;20566;-69
2023/12/28 08:03:17;;;;;;;3.80;1.73;;;;;;;;;;5082718;28;20454;-68
2023/12/28 08:05:44;;;;;;;2.28;1.70;;;;;;;;;;5090191;28;20501;-68
2023/12/28 08:08:11;;;;;;;2.40;1.52;;;;;;;;;;5085838;28;20423;-68
2023/12/28 08:10:38;;;;;;;2.35;1.52;;;;;;;;;;5091279;28;20048;-68
2023/12/28 08:13:04;;;;;;;3.00;1.60;;;;;;;;;;5086218;28;20709;-68
2023/12/28 08:15:31;;;;;;;2.50;1.60;;;;;;;;;;5078595;28;20123;-68
2023/12/28 08:17:57;;;;;;;2.72;1.70;;;;;;;;;;5082387;28;20488;-68
2023/12/28 08:20:23;;;;;;;2.95;1.70;;;;;;;;;;5091590;28;20043;-68
2023/12/28 08:22:50;;;;;;;3.83;1.90;;;;;;;;;;5086433;28;20048;-68
2023/12/28 08:25:18;;;;;;;3.95;1.85;;;;;;;;;;5082616;28;20051;-69
2023/12/28 08:27:45;;;;;;;5.88;1.77;;;;;;;;;;5087560;28;20488;-68
2023/12/28 08:30:11;;;;;;;4.43;1.65;;;;;;;;;;5086298;28;20147;-68
2023/12/28 08:32:38;;;;;;;5.10;1.48;;;;;;;;;;5083298;28;20055;-69
2023/12/28 08:35:04;;;;;;;4.13;1.70;;;;;;;;;;5088917;28;20495;-68
2023/12/28 08:37:31;;;;;;;2.55;1.55;;;;;;;;;;5084144;28;20055;-68
2023/12/28 08:39:57;;;;;;;1.95;1.55;;;;;;;;;;5088265;28;20070;-69
2023/12/28 08:42:25;;;;;;;3.90;1.38;;;;;;;;;;5090058;28;20044;-68
2023/12/28 08:44:51;;;;;;;5.57;2.20;;;;;;;;;;5085576;28;20048;-68
2023/12/28 08:47:18;;;;;;;2.72;1.40;;;;;;;;;;5086934;28;20519;-68
2023/12/28 08:49:44;;;;;;;3.78;1.73;;;;;;;;;;5090935;28;20525;-68
2023/12/28 08:52:11;;;;;;;2.85;1.55;;;;;;;;;;5086673;28;20040;-68
2023/12/28 08:54:37;;;;;;;4.40;1.88;;;;;;;;;;5081400;28;20043;-68
2023/12/28 08:57:04;;;;;;;5.65;1.73;;;;;;;;;;5085299;28;20488;-69
2023/12/28 08:59:31;;;;;;;3.08;1.80;;;;;;;;;;5083565;28;20054;-68
2023/12/28 09:01:58;;;;;;;3.17;1.70;;;;;;;;;;5083191;28;20509;-68
2023/12/28 09:04:24;;;;;;;6.45;2.28;;;;;;;;;;5083470;28;20306;-69
2023/12/28 09:06:51;;;;;;;3.28;1.55;;;;;;;;;;5086573;28;20049;-69
2023/12/28 09:09:17;;;;;;;2.13;1.50;;;;;;;;;;5090130;28;20127;-68
2023/12/28 09:11:43;;;;;;;3.22;1.67;;;;;;;;;;5092460;28;20044;-69
2023/12/28 09:14:10;;;;;;;3.47;1.70;;;;;;;;;;5085697;28;20052;-68
2023/12/28 09:16:39;;;;;;;3.42;1.42;;;;;;;;;;5083214;28;20051;-68
2023/12/28 09:19:05;;;;;;;3.00;1.40;;;;;;;;;;5089862;28;20056;-68
2023/12/28 09:21:31;;;;;;;5.72;2.05;;;;;;;;;;5094194;28;20442;-68
2023/12/28 09:23:58;;;;;;;4.45;1.90;;;;;;;;;;5084779;28;20052;-68
2023/12/28 09:26:24;;;;;;;2.75;1.42;;;;;;;;;;5089224;28;20415;-68
2023/12/28 09:28:51;;;;;;;3.75;1.85;;;;;;;;;;5082426;28;20048;-68
2023/12/28 09:31:17;;;;;;;3.80;2.13;;;;;;;;;;5086370;28;20044;-69
2023/12/28 09:33:45;;;;;;;3.20;1.60;;;;;;;;;;5078335;28;20488;-68
2023/12/28 09:36:13;;;;;;;5.05;1.80;;;;;;;;;;5094258;28;20044;-68
2023/12/28 09:38:39;;;;;;;1.73;1.42;;;;;;;;;;5093397;28;20101;-68
2023/12/28 09:41:11;;;;;;;3.22;1.70;;;;;;;;;;5093433;28;20044;-68
2023/12/28 09:43:41;;;;;;;2.65;1.60;;;;;;;;;;5094174;28;20492;-68
2023/12/28 09:46:09;;;;;;;3.55;1.30;;;;;;;;;;5092907;28;20055;-68
2023/12/28 09:48:37;;;;;;;2.55;1.40;;;;;;;;;;5086798;28;20040;-68
2023/12/28 09:51:05;;;;;;;2.97;1.50;;;;;;;;;;5084158;28;20135;-68
2023/12/28 09:53:32;;;;;;;3.47;1.58;;;;;;;;;;5086949;28;20557;-68
2023/12/28 09:55:58;;;;;;;5.85;1.88;;;;;;;;;;5091562;28;20044;-68
2023/12/28 09:58:25;;;;;;;4.60;2.03;;;;;;;;;;5081433;28;20097;-68
2023/12/28 10:00:51;;;;;;;3.67;1.33;;;;;;;;;;5078823;28;20058;-68
2023/12/28 10:03:18;;;;;;;2.55;1.40;;;;;;;;;;5085527;28;20044;-69
2023/12/28 10:05:45;;;;;;;5.43;2.00;;;;;;;;;;5088708;28;20048;-68
2023/12/28 10:08:13;;;;;;;1.92;1.17;;;;;;;;;;5086417;28;20060;-68
2023/12/28 10:10:40;;;;;;;4.57;1.65;;;;;;;;;;5089455;28;20051;-68
2023/12/28 10:13:07;;;;;;;2.72;1.55;;;;;;;;;;5085336;28;20058;-68
2023/12/28 10:15:33;;;;;;;3.78;1.10;;;;;;;;;;5087836;28;20578;-68
2023/12/28 10:18:00;;;;;;;3.55;1.42;;;;;;;;;;5092863;28;20054;-68
2023/12/28 10:20:27;;;;;;;1.52;1.30;;;;;;;;;;5084486;28;20492;-69
2023/12/28 10:22:53;;;;;;;2.90;1.40;;;;;;;;;;5086903;28;20051;-68
2023/12/28 10:25:21;;;;;;;2.90;1.73;;;;;;;;;;5085967;28;20124;-68
2023/12/28 10:27:51;;;;;;;3.30;1.42;;;;;;;;;;5088661;28;20058;-68
2023/12/28 10:30:17;;;;;;;3.60;1.73;;;;;;;;;;5089002;28;20040;-68
2023/12/28 10:32:43;;;;;;;6.07;1.63;;;;;;;;;;5088171;28;20060;-68
2023/12/28 10:35:10;;;;;;;3.35;2.10;;;;;;;;;;5091375;28;20426;-68
2023/12/28 10:37:36;;;;;;;3.83;1.80;;;;;;;;;;5088353;28;20050;-68
2023/12/28 10:40:06;;;;;;;3.03;1.50;;;;;;;;;;5088819;28;20043;-68
2023/12/28 10:42:34;;;;;;;3.67;1.83;;;;;;;;;;5088432;28;20045;-68
2023/12/28 10:45:03;;;;;;;2.70;1.50;;;;;;;;;;5091822;28;20127;-68
2023/12/28 10:47:32;;;;;;;5.35;2.40;;;;;;;;;;5079836;28;20056;-68
2023/12/28 10:50:00;;;;;;;4.15;1.63;;;;;;;;;;5087054;28;20052;-68
2023/12/28 10:52:27;;;;;;;3.92;1.60;;;;;;;;;;5084618;28;20044;-68
2023/12/28 10:54:58;;;;;;;4.22;1.60;;;;;;;;;;5084168;28;20056;-68
2023/12/28 10:57:29;;;;;;;2.65;1.13;;;;;;;;;;5088594;28;20068;-68
2023/12/28 11:00:01;;;;;;;4.18;1.33;;;;;;;;;;5088532;28;20048;-68
2023/12/28 11:02:29;;;;;;;2.15;1.30;;;;;;;;;;5084098;28;20044;-68
2023/12/28 11:04:56;;;;;;;2.10;1.40;;;;;;;;;;5086800;28;20052;-68
2023/12/28 11:07:22;;;;;;;3.67;1.33;;;;;;;;;;5087981;28;20044;-68
2023/12/28 11:09:49;;;;;;;4.63;1.50;;;;;;;;;;5088067;28;20508;-69
2023/12/28 11:12:18;;;;;;;2.42;1.20;;;;;;;;;;5087897;28;20047;-68
2023/12/28 11:14:44;;;;;;;3.50;1.50;;;;;;;;;;5087618;28;20086;-68
2023/12/28 11:17:14;;;;;;;3.72;1.60;;;;;;;;;;5087618;28;20052;-68
2023/12/28 11:19:42;;;;;;;4.03;1.50;;;;;;;;;;5084073;28;20144;-68
2023/12/28 11:22:09;;;;;;;3.05;1.50;;;;;;;;;;5084079;28;20473;-68
2023/12/28 11:24:36;;;;;;;2.75;1.30;;;;;;;;;;5087474;28;20139;-68
2023/12/28 11:27:04;;;;;;;4.18;1.65;;;;;;;;;;5091791;28;20131;-68
2023/12/28 11:29:31;;;;;;;4.75;1.60;;;;;;;;;;5088075;28;20073;-68
2023/12/28 11:31:58;;;;;;;2.90;1.45;;;;;;;;;;5088606;28;20055;-68
2023/12/28 11:34:30;;;;;;;4.03;1.92;;;;;;;;;;5086421;28;20158;-68
2023/12/28 11:36:58;;;;;;;2.50;1.33;;;;;;;;;;5087123;28;20053;-68
2023/12/28 11:39:30;;;;;;;3.10;1.50;;;;;;;;;;5087675;28;20044;-68
2023/12/28 11:42:00;;;;;;;2.35;1.42;;;;;;;;;;5083219;28;20076;-68
2023/12/28 11:44:27;;;;;;;4.88;1.65;;;;;;;;;;5084414;28;20510;-69
2023/12/28 11:46:53;;;;;;;2.92;1.70;;;;;;;;;;5080584;28;20055;-68
2023/12/28 11:49:25;;;;;;;2.10;1.30;;;;;;;;;;5087384;28;20044;-69
2023/12/28 11:51:56;;;;;;;2.92;1.45;;;;;;;;;;5083478;28;20055;-69
2023/12/28 11:54:22;;;;;;;2.15;1.30;;;;;;;;;;5086457;28;20067;-68
2023/12/28 11:56:56;;;;;;;3.17;1.80;;;;;;;;;;5078445;28;20376;-68
2023/12/28 11:59:23;;;;;;;2.17;1.50;;;;;;;;;;5082857;28;20048;-68
2023/12/28 12:01:53;;;;;;;3.05;1.50;;;;;;;;;;5076258;28;20148;-69
2023/12/28 12:04:20;;;;;;;2.97;1.58;;;;;;;;;;5082207;28;20060;-69
2023/12/28 12:06:47;;;;;;;5.50;1.70;;;;;;;;;;5080688;28;20556;-68
2023/12/28 12:09:15;;;;;;;3.90;2.00;;;;;;;;;;5080845;28;20488;-68
2023/12/28 12:11:42;;;;;;;1.70;1.30;;;;;;;;;;5076738;28;20045;-68
2023/12/28 12:14:11;;;;;;;2.92;1.50;;;;;;;;;;5087024;28;20066;-69
2023/12/28 12:16:38;;;;;;;4.70;1.70;;;;;;;;;;5085240;28;20048;-68
2023/12/28 12:19:06;;;;;;;4.70;1.65;;;;;;;;;;5086693;28;20050;-68
2023/12/28 12:21:33;;;;;;;3.38;1.45;;;;;;;;;;5083566;28;20131;-68
2023/12/28 12:24:00;;;;;;;2.80;1.60;;;;;;;;;;5086933;28;20539;-69
2023/12/28 12:26:27;;;;;;;3.60;1.65;;;;;;;;;;5088052;28;20056;-68
2023/12/28 12:28:54;;;;;;;2.28;1.75;;;;;;;;;;5082293;28;20048;-68
2023/12/28 12:31:22;;;;;;;3.15;1.95;;;;;;;;;;5083751;28;20051;-68
2023/12/28 12:33:49;;;;;;;4.18;1.90;;;;;;;;;;5082749;28;20068;-68
2023/12/28 12:36:17;;;;;;;3.80;1.80;;;;;;;;;;5080222;28;20076;-68
2023/12/28 12:38:43;;;;;;;3.22;1.65;;;;;;;;;;5083503;28;20507;-69
2023/12/28 12:41:11;;;;;;;2.47;1.90;;;;;;;;;;5083109;28;20127;-68
2023/12/28 12:43:38;;;;;;;3.03;1.40;;;;;;;;;;5082333;28;20131;-68
2023/12/28 12:46:05;;;;;;;2.45;1.88;;;;;;;;;;5087894;28;20052;-69
2023/12/28 12:48:33;;;;;;;2.53;1.27;;;;;;;;;;5080754;28;20131;-68
2023/12/28 12:51:03;;;;;;;1.92;1.20;;;;;;;;;;5080748;28;20044;-68
2023/12/28 12:53:34;;;;;;;1.83;1.35;;;;;;;;;;5080730;28;20617;-68
2023/12/28 12:56:00;;;;;;;2.38;1.35;;;;;;;;;;5073164;28;20443;-68
2023/12/28 12:58:27;;;;;;;3.90;1.38;;;;;;;;;;5083047;28;20052;-68
2023/12/28 13:00:54;;;;;;;2.08;1.30;;;;;;;;;;5087553;28;20045;-69
2023/12/28 13:03:21;;;;;;;2.63;1.42;;;;;;;;;;5086556;28;20048;-68
2023/12/28 13:05:49;;;;;;;1.95;1.30;;;;;;;;;;5075028;28;20045;-68
2023/12/28 13:08:15;;;;;;;3.25;1.55;;;;;;;;;;5070138;28;20044;-68
2023/12/28 13:10:42;;;;;;;1.25;1.10;;;;;;;;;;5058178;28;20082;-68
2023/12/28 13:13:08;;;;;;;1.60;1.20;;;;;;;;;;5068852;28;20049;-68
2023/12/28 13:15:35;;;;;;;3.15;1.38;;;;;;;;;;5068743;28;20124;-68
2023/12/28 13:18:01;;;;;;;3.70;1.20;;;;;;;;;;5068388;28;20045;-68
2023/12/28 13:20:28;;;;;;;2.45;1.38;;;;;;;;;;5065203;28;20127;-68
2023/12/28 13:22:56;;;;;;;1.48;1.27;;;;;;;;;;5068617;28;20052;-68
2023/12/28 13:25:23;;;;;;;2.60;1.30;;;;;;;;;;5067436;28;20517;-68
2023/12/28 13:27:49;;;;;;;1.50;1.10;;;;;;;;;;5065405;28;20049;-68
2023/12/28 13:30:16;;;;;;;1.85;1.10;;;;;;;;;;5073568;28;20496;-68
2023/12/28 13:32:43;;;;;;;2.50;1.30;;;;;;;;;;5064924;28;20107;-68
2023/12/28 13:35:09;;;;;;;3.10;1.35;;;;;;;;;;5061799;28;20480;-68
2023/12/28 13:37:36;;;;;;;2.35;1.20;;;;;;;;;;5065412;28;20047;-69
2023/12/28 13:40:05;;;;;;;3.03;1.30;;;;;;;;;;5071442;28;20492;-69
2023/12/28 13:42:31;;;;;;;3.85;1.42;;;;;;;;;;5067029;28;20056;-68
2023/12/28 13:44:57;;;;;;;4.38;1.15;;;;;;;;;;5062148;28;20132;-68
2023/12/28 13:47:24;;;;;;;1.92;1.48;;;;;;;;;;5068557;28;20488;-68
2023/12/28 13:49:51;;;;;;;1.55;1.20;;;;;;;;;;5065372;28;20131;-68
2023/12/28 13:52:17;;;;;;;2.35;1.95;;;;;;;;;;5064356;28;20040;-68
2023/12/28 13:54:44;;;;;;;1.73;1.40;;;;;;;;;;5063619;28;20045;-68
2023/12/28 13:57:12;;;;;;;2.22;1.35;;;;;;;;;;5067517;28;20067;-68
2023/12/28 13:59:42;;;;;;;1.40;1.20;;;;;;;;;;5069219;28;20045;-68
2023/12/28 14:02:08;;;;;;;3.15;1.52;;;;;;;;;;5059550;28;20161;-68
2023/12/28 14:04:35;;;;;;;2.15;1.25;;;;;;;;;;5068515;28;20040;-68
2023/12/28 14:07:03;;;;;;;1.90;1.35;;;;;;;;;;5067022;28;20136;-68
2023/12/28 14:09:31;;;;;;;1.95;1.35;;;;;;;;;;5069750;28;20048;-68
2023/12/28 14:11:58;;;;;;;1.42;1.33;;;;;;;;;;5061631;28;20052;-68
2023/12/28 14:14:26;;;;;;;2.45;1.42;;;;;;;;;;5065695;28;20049;-69
2023/12/28 14:16:52;;;;;;;1.85;1.45;;;;;;;;;;5064478;28;20049;-68
2023/12/28 14:19:19;;;;;;;1.85;1.50;;;;;;;;;;5062744;28;20048;-69
2023/12/28 14:21:46;;;;;;;2.30;1.60;;;;;;;;;;5068439;28;20504;-68
2023/12/28 14:24:14;;;;;;;3.28;1.60;;;;;;;;;;5065941;28;20209;-69
2023/12/28 14:26:43;;;;;;;2.20;1.48;;;;;;;;;;5068069;28;20051;-69
2023/12/28 14:29:10;;;;;;;4.05;2.00;;;;;;;;;;5066810;28;20408;-68
2023/12/28 14:31:38;;;;;;;2.90;1.83;;;;;;;;;;5063596;28;20056;-69
2023/12/28 14:34:05;;;;;;;3.10;1.40;;;;;;;;;;5070461;28;20052;-68
2023/12/28 14:36:33;;;;;;;4.57;1.60;;;;;;;;;;5061225;28;20507;-68
2023/12/28 14:38:59;;;;;;;2.53;1.65;;;;;;;;;;5068966;28;20164;-68
2023/12/28 14:41:26;;;;;;;1.98;1.52;;;;;;;;;;5071518;28;20051;-68